sensor_id;sensor_type;location;lat;lon;timestamp;pressure;altitude;pressure_sealevel;temperature;humidity
70555;BME280;58104;52.744;15.242;2023-02-13T00:01:44;102875.78;;;18.37;43.27
70555;BME280;58104;52.744;15.242;2023-02-13T00:04:09;102874.61;;;18.46;43.29
70555;BME280;58104;52.744;15.242;2023-02-13T00:06:34;102874.20;;;18.51;43.25
70555;BME280;58104;52.744;15.242;2023-02-13T00:09:01;102873.77;;;18.57;43.47
70555;BME280;58104;52.744;15.242;2023-02-13T00:11:25;102873.17;;;18.50;43.53
70555;BME280;58104;52.744;15.242;2023-02-13T00:13:51;102871.64;;;18.51;43.54
70555;BME280;58104;52.744;15.242;2023-02-13T00:16:16;102868.59;;;18.41;43.72
70555;BME280;58104;52.744;15.242;2023-02-13T00:18:42;102865.27;;;18.53;43.78
70555;BME280;58104;52.744;15.242;2023-02-13T00:21:09;102864.11;;;18.49;43.88
70555;BME280;58104;52.744;15.242;2023-02-13T00:23:34;102860.95;;;18.49;43.92
70555;BME280;58104;52.744;15.242;2023-02-13T00:25:59;102858.69;;;18.49;43.95
70555;BME280;58104;52.744;15.242;2023-02-13T00:28:24;102860.56;;;18.55;44.07
70555;BME280;58104;52.744;15.242;2023-02-13T00:30:49;102861.28;;;18.51;44.07
70555;BME280;58104;52.744;15.242;2023-02-13T00:33:19;102863.73;;;18.43;44.24
70555;BME280;58104;52.744;15.242;2023-02-13T00:35:40;102864.35;;;18.44;44.24
70555;BME280;58104;52.744;15.242;2023-02-13T00:38:05;102863.88;;;18.49;44.18
70555;BME280;58104;52.744;15.242;2023-02-13T00:40:30;102864.34;;;18.54;44.30
70555;BME280;58104;52.744;15.242;2023-02-13T00:42:56;102866.37;;;18.46;44.37
70555;BME280;58104;52.744;15.242;2023-02-13T00:45:21;102864.66;;;18.46;44.22
70555;BME280;58104;52.744;15.242;2023-02-13T00:47:47;102862.70;;;18.52;44.30
70555;BME280;58104;52.744;15.242;2023-02-13T00:50:12;102860.89;;;18.55;44.36
70555;BME280;58104;52.744;15.242;2023-02-13T00:52:38;102857.69;;;18.45;44.58
70555;BME280;58104;52.744;15.242;2023-02-13T00:55:03;102859.86;;;18.45;44.79
70555;BME280;58104;52.744;15.242;2023-02-13T00:57:28;102858.22;;;18.44;44.84
70555;BME280;58104;52.744;15.242;2023-02-13T00:59:54;102857.56;;;18.44;44.88
70555;BME280;58104;52.744;15.242;2023-02-13T01:02:19;102853.75;;;18.41;44.96
70555;BME280;58104;52.744;15.242;2023-02-13T01:04:45;102854.12;;;18.44;45.03
70555;BME280;58104;52.744;15.242;2023-02-13T01:07:10;102855.83;;;18.39;45.08
70555;BME280;58104;52.744;15.242;2023-02-13T01:09:35;102856.36;;;18.50;45.13
70555;BME280;58104;52.744;15.242;2023-02-13T01:12:01;102856.10;;;18.47;45.18
70555;BME280;58104;52.744;15.242;2023-02-13T01:14:26;102854.63;;;18.38;45.35
70555;BME280;58104;52.744;15.242;2023-02-13T01:16:52;102852.15;;;18.37;45.45
70555;BME280;58104;52.744;15.242;2023-02-13T01:19:17;102846.20;;;18.37;45.66
70555;BME280;58104;52.744;15.242;2023-02-13T01:21:43;102846.97;;;18.33;45.60
70555;BME280;58104;52.744;15.242;2023-02-13T01:24:08;102847.35;;;18.33;45.64
70555;BME280;58104;52.744;15.242;2023-02-13T01:26:33;102844.89;;;18.38;45.67
70555;BME280;58104;52.744;15.242;2023-02-13T01:28:59;102848.24;;;18.29;45.80
70555;BME280;58104;52.744;15.242;2023-02-13T01:31:25;102847.93;;;18.26;45.95
70555;BME280;58104;52.744;15.242;2023-02-13T01:33:50;102851.33;;;18.33;45.91
70555;BME280;58104;52.744;15.242;2023-02-13T01:36:15;102849.98;;;18.29;45.98
70555;BME280;58104;52.744;15.242;2023-02-13T01:38:41;102847.51;;;18.27;46.03
70555;BME280;58104;52.744;15.242;2023-02-13T01:41:07;102849.25;;;18.33;46.07
70555;BME280;58104;52.744;15.242;2023-02-13T01:45:57;102847.22;;;18.32;46.19
70555;BME280;58104;52.744;15.242;2023-02-13T01:48:24;102843.96;;;18.30;46.26
70555;BME280;58104;52.744;15.242;2023-02-13T01:50:50;102847.62;;;18.30;46.17
70555;BME280;58104;52.744;15.242;2023-02-13T01:53:16;102845.37;;;18.29;46.35
70555;BME280;58104;52.744;15.242;2023-02-13T01:55:42;102847.22;;;18.27;46.37
70555;BME280;58104;52.744;15.242;2023-02-13T01:58:07;102847.25;;;18.32;46.46
70555;BME280;58104;52.744;15.242;2023-02-13T02:00:30;102843.28;;;18.36;46.64
70555;BME280;58104;52.744;15.242;2023-02-13T02:03:00;102837.75;;;18.32;46.80
70555;BME280;58104;52.744;15.242;2023-02-13T02:05:23;102833.78;;;18.38;46.69
70555;BME280;58104;52.744;15.242;2023-02-13T02:07:46;102831.43;;;18.35;46.81
70555;BME280;58104;52.744;15.242;2023-02-13T02:10:14;102834.14;;;18.37;46.85
70555;BME280;58104;52.744;15.242;2023-02-13T02:12:42;102832.37;;;18.30;46.90
70555;BME280;58104;52.744;15.242;2023-02-13T02:15:04;102830.59;;;18.30;47.23
70555;BME280;58104;52.744;15.242;2023-02-13T02:17:27;102827.30;;;18.34;47.34
70555;BME280;58104;52.744;15.242;2023-02-13T02:20:00;102824.14;;;18.28;47.29
70555;BME280;58104;52.744;15.242;2023-02-13T02:22:29;102827.91;;;18.28;47.42
70555;BME280;58104;52.744;15.242;2023-02-13T02:24:57;102823.19;;;18.34;47.45
70555;BME280;58104;52.744;15.242;2023-02-13T02:27:19;102818.95;;;18.24;47.45
70555;BME280;58104;52.744;15.242;2023-02-13T02:29:48;102824.53;;;18.28;47.48
70555;BME280;58104;52.744;15.242;2023-02-13T02:32:07;102831.09;;;18.26;47.38
70555;BME280;58104;52.744;15.242;2023-02-13T02:34:30;102830.31;;;18.34;47.49
70555;BME280;58104;52.744;15.242;2023-02-13T02:37:00;102834.03;;;18.27;47.66
70555;BME280;58104;52.744;15.242;2023-02-13T02:39:22;102833.20;;;18.34;47.71
70555;BME280;58104;52.744;15.242;2023-02-13T02:41:51;102833.42;;;18.27;47.85
70555;BME280;58104;52.744;15.242;2023-02-13T02:46:35;102836.90;;;18.32;47.97
70555;BME280;58104;52.744;15.242;2023-02-13T02:49:03;102831.70;;;18.19;48.02
70555;BME280;58104;52.744;15.242;2023-02-13T02:51:27;102829.38;;;18.26;48.18
70555;BME280;58104;52.744;15.242;2023-02-13T02:53:56;102832.46;;;18.30;48.25
70555;BME280;58104;52.744;15.242;2023-02-13T02:56:19;102830.55;;;18.32;48.18
70555;BME280;58104;52.744;15.242;2023-02-13T02:58:42;102834.05;;;18.38;48.09
70555;BME280;58104;52.744;15.242;2023-02-13T03:01:06;102834.16;;;18.46;48.16
70555;BME280;58104;52.744;15.242;2023-02-13T03:03:30;102833.02;;;18.42;48.07
70555;BME280;58104;52.744;15.242;2023-02-13T03:05:55;102834.93;;;18.44;48.08
70555;BME280;58104;52.744;15.242;2023-02-13T03:08:21;102837.14;;;18.38;48.11
70555;BME280;58104;52.744;15.242;2023-02-13T03:10:46;102835.10;;;18.48;48.35
70555;BME280;58104;52.744;15.242;2023-02-13T03:13:14;102833.70;;;18.47;48.36
70555;BME280;58104;52.744;15.242;2023-02-13T03:15:39;102830.47;;;18.40;48.49
70555;BME280;58104;52.744;15.242;2023-02-13T03:18:03;102831.53;;;18.48;48.46
70555;BME280;58104;52.744;15.242;2023-02-13T03:20:37;102831.93;;;18.41;48.55
70555;BME280;58104;52.744;15.242;2023-02-13T03:23:05;102831.00;;;18.38;48.53
70555;BME280;58104;52.744;15.242;2023-02-13T03:25:23;102830.21;;;18.33;48.63
70555;BME280;58104;52.744;15.242;2023-02-13T03:27:52;102833.46;;;18.34;48.70
70555;BME280;58104;52.744;15.242;2023-02-13T03:30:18;102833.26;;;18.48;48.66
70555;BME280;58104;52.744;15.242;2023-02-13T03:32:40;102829.00;;;18.43;48.66
70555;BME280;58104;52.744;15.242;2023-02-13T03:35:07;102824.63;;;18.45;48.65
70555;BME280;58104;52.744;15.242;2023-02-13T03:37:29;102823.80;;;18.49;48.76
70555;BME280;58104;52.744;15.242;2023-02-13T03:39:58;102827.48;;;18.34;48.84
70555;BME280;58104;52.744;15.242;2023-02-13T03:42:22;102831.04;;;18.36;48.94
70555;BME280;58104;52.744;15.242;2023-02-13T03:44:47;102829.81;;;18.47;49.06
70555;BME280;58104;52.744;15.242;2023-02-13T03:47:09;102836.34;;;18.45;49.30
70555;BME280;58104;52.744;15.242;2023-02-13T03:49:35;102835.99;;;18.42;49.19
70555;BME280;58104;52.744;15.242;2023-02-13T03:52:01;102832.92;;;18.35;49.20
70555;BME280;58104;52.744;15.242;2023-02-13T03:54:26;102833.09;;;18.34;49.21
70555;BME280;58104;52.744;15.242;2023-02-13T03:56:49;102831.67;;;18.50;49.10
70555;BME280;58104;52.744;15.242;2023-02-13T03:59:20;102833.62;;;18.49;49.13
70555;BME280;58104;52.744;15.242;2023-02-13T04:01:45;102834.10;;;18.49;49.12
70555;BME280;58104;52.744;15.242;2023-02-13T04:04:09;102839.33;;;18.41;49.24
70555;BME280;58104;52.744;15.242;2023-02-13T04:06:34;102836.99;;;18.39;49.30
70555;BME280;58104;52.744;15.242;2023-02-13T04:08:56;102833.07;;;18.42;49.23
70555;BME280;58104;52.744;15.242;2023-02-13T04:11:25;102834.02;;;18.45;49.42
70555;BME280;58104;52.744;15.242;2023-02-13T04:13:50;102832.45;;;18.39;49.52
70555;BME280;58104;52.744;15.242;2023-02-13T04:16:16;102832.44;;;18.47;49.75
70555;BME280;58104;52.744;15.242;2023-02-13T04:18:38;102832.70;;;18.32;49.91
70555;BME280;58104;52.744;15.242;2023-02-13T04:21:05;102833.30;;;18.36;50.00
70555;BME280;58104;52.744;15.242;2023-02-13T04:23:29;102829.43;;;18.26;50.13
70555;BME280;58104;52.744;15.242;2023-02-13T04:25:55;102828.81;;;18.40;50.47
70555;BME280;58104;52.744;15.242;2023-02-13T04:28:20;102829.24;;;18.34;50.38
70555;BME280;58104;52.744;15.242;2023-02-13T04:30:45;102831.11;;;18.42;50.21
70555;BME280;58104;52.744;15.242;2023-02-13T04:33:10;102830.73;;;18.49;50.21
70555;BME280;58104;52.744;15.242;2023-02-13T04:35:36;102830.51;;;18.53;50.13
70555;BME280;58104;52.744;15.242;2023-02-13T04:38:01;102830.06;;;18.51;50.21
70555;BME280;58104;52.744;15.242;2023-02-13T04:40:27;102828.14;;;18.41;50.26
70555;BME280;58104;52.744;15.242;2023-02-13T04:42:52;102827.47;;;18.51;50.38
70555;BME280;58104;52.744;15.242;2023-02-13T04:45:17;102822.49;;;18.46;50.44
70555;BME280;58104;52.744;15.242;2023-02-13T04:47:49;102823.70;;;18.56;50.31
70555;BME280;58104;52.744;15.242;2023-02-13T04:50:09;102826.58;;;18.51;50.35
70555;BME280;58104;52.744;15.242;2023-02-13T04:52:34;102826.67;;;18.50;50.52
70555;BME280;58104;52.744;15.242;2023-02-13T04:54:59;102827.57;;;18.55;50.54
70555;BME280;58104;52.744;15.242;2023-02-13T04:57:25;102826.35;;;18.44;50.59
70555;BME280;58104;52.744;15.242;2023-02-13T04:59:50;102830.32;;;18.49;50.68
70555;BME280;58104;52.744;15.242;2023-02-13T05:02:15;102827.85;;;18.56;50.76
70555;BME280;58104;52.744;15.242;2023-02-13T05:04:41;102828.21;;;18.55;50.84
70555;BME280;58104;52.744;15.242;2023-02-13T05:07:06;102831.42;;;18.51;51.02
70555;BME280;58104;52.744;15.242;2023-02-13T05:09:32;102829.89;;;18.54;51.38
70555;BME280;58104;52.744;15.242;2023-02-13T05:11:57;102834.09;;;18.47;51.55
70555;BME280;58104;52.744;15.242;2023-02-13T05:14:22;102833.26;;;18.46;51.65
70555;BME280;58104;52.744;15.242;2023-02-13T05:16:48;102833.07;;;18.44;51.67
70555;BME280;58104;52.744;15.242;2023-02-13T05:19:13;102836.33;;;18.37;51.61
70555;BME280;58104;52.744;15.242;2023-02-13T05:21:39;102834.06;;;18.43;51.61
70555;BME280;58104;52.744;15.242;2023-02-13T05:24:05;102833.71;;;18.51;51.55
70555;BME280;58104;52.744;15.242;2023-02-13T05:26:29;102835.89;;;18.35;51.63
70555;BME280;58104;52.744;15.242;2023-02-13T05:28:55;102835.39;;;18.44;51.65
70555;BME280;58104;52.744;15.242;2023-02-13T05:31:20;102841.61;;;18.40;51.74
70555;BME280;58104;52.744;15.242;2023-02-13T05:33:46;102842.30;;;18.38;51.63
70555;BME280;58104;52.744;15.242;2023-02-13T05:36:11;102839.75;;;18.44;51.63
70555;BME280;58104;52.744;15.242;2023-02-13T05:38:37;102837.96;;;18.42;51.86
70555;BME280;58104;52.744;15.242;2023-02-13T05:41:02;102841.80;;;18.42;51.97
70555;BME280;58104;52.744;15.242;2023-02-13T05:43:28;102838.30;;;18.42;52.11
70555;BME280;58104;52.744;15.242;2023-02-13T05:46:01;102841.57;;;18.41;52.18
70555;BME280;58104;52.744;15.242;2023-02-13T05:48:18;102843.71;;;18.52;52.40
70555;BME280;58104;52.744;15.242;2023-02-13T05:50:45;102849.64;;;18.50;52.45
70555;BME280;58104;52.744;15.242;2023-02-13T05:53:09;102850.73;;;18.47;52.45
70555;BME280;58104;52.744;15.242;2023-02-13T05:55:35;102851.19;;;18.52;52.34
70555;BME280;58104;52.744;15.242;2023-02-13T05:58:00;102849.74;;;18.45;52.64
70555;BME280;58104;52.744;15.242;2023-02-13T06:00:25;102846.19;;;18.42;52.88
70555;BME280;58104;52.744;15.242;2023-02-13T06:02:51;102847.95;;;18.47;52.85
70555;BME280;58104;52.744;15.242;2023-02-13T06:05:16;102854.50;;;18.44;52.70
70555;BME280;58104;52.744;15.242;2023-02-13T06:07:42;102853.97;;;18.47;52.66
70555;BME280;58104;52.744;15.242;2023-02-13T06:10:07;102849.52;;;18.44;52.90
70555;BME280;58104;52.744;15.242;2023-02-13T06:12:32;102855.36;;;18.41;53.12
70555;BME280;58104;52.744;15.242;2023-02-13T06:14:58;102859.63;;;18.51;52.97
70555;BME280;58104;52.744;15.242;2023-02-13T06:17:23;102861.77;;;18.62;53.51
70555;BME280;58104;52.744;15.242;2023-02-13T06:19:49;102870.01;;;18.68;53.53
70555;BME280;58104;52.744;15.242;2023-02-13T06:22:14;102871.10;;;18.66;53.44
70555;BME280;58104;52.744;15.242;2023-02-13T06:24:39;102866.53;;;18.79;53.16
70555;BME280;58104;52.744;15.242;2023-02-13T06:27:05;102866.04;;;18.80;52.61
70555;BME280;58104;52.744;15.242;2023-02-13T06:29:30;102862.43;;;18.96;48.77
70555;BME280;58104;52.744;15.242;2023-02-13T06:31:56;102870.68;;;18.82;47.07
70555;BME280;58104;52.744;15.242;2023-02-13T06:34:21;102876.13;;;18.81;46.10
70555;BME280;58104;52.744;15.242;2023-02-13T06:36:47;102874.97;;;18.81;44.83
70555;BME280;58104;52.744;15.242;2023-02-13T06:39:12;102876.44;;;18.87;43.98
70555;BME280;58104;52.744;15.242;2023-02-13T06:41:37;102878.85;;;18.72;44.55
70555;BME280;58104;52.744;15.242;2023-02-13T06:44:03;102885.73;;;18.86;43.08
70555;BME280;58104;52.744;15.242;2023-02-13T06:46:28;102885.21;;;18.90;43.44
70555;BME280;58104;52.744;15.242;2023-02-13T06:48:54;102890.77;;;18.66;41.50
70555;BME280;58104;52.744;15.242;2023-02-13T06:51:19;102891.36;;;18.48;40.83
70555;BME280;58104;52.744;15.242;2023-02-13T06:53:44;102896.08;;;18.35;40.84
70555;BME280;58104;52.744;15.242;2023-02-13T06:56:10;102900.05;;;18.05;40.71
70555;BME280;58104;52.744;15.242;2023-02-13T06:58:35;102907.06;;;17.69;40.27
70555;BME280;58104;52.744;15.242;2023-02-13T07:01:01;102909.38;;;17.81;41.02
70555;BME280;58104;52.744;15.242;2023-02-13T07:03:26;102905.32;;;17.90;40.26
70555;BME280;58104;52.744;15.242;2023-02-13T07:05:52;102911.56;;;17.94;40.25
70555;BME280;58104;52.744;15.242;2023-02-13T07:08:17;102906.68;;;17.23;39.46
70555;BME280;58104;52.744;15.242;2023-02-13T07:10:42;102905.64;;;17.08;39.87
70555;BME280;58104;52.744;15.242;2023-02-13T07:13:08;102913.50;;;17.46;41.20
70555;BME280;58104;52.744;15.242;2023-02-13T07:15:34;102909.90;;;17.58;40.70
70555;BME280;58104;52.744;15.242;2023-02-13T07:17:59;102912.75;;;17.44;41.88
70555;BME280;58104;52.744;15.242;2023-02-13T07:20:24;102918.06;;;17.70;41.91
70555;BME280;58104;52.744;15.242;2023-02-13T07:22:49;102918.04;;;17.71;42.39
70555;BME280;58104;52.744;15.242;2023-02-13T07:25:15;102915.63;;;17.74;42.60
70555;BME280;58104;52.744;15.242;2023-02-13T07:27:40;102917.33;;;17.86;42.87
70555;BME280;58104;52.744;15.242;2023-02-13T07:30:06;102916.40;;;17.85;43.06
70555;BME280;58104;52.744;15.242;2023-02-13T07:32:31;102917.69;;;17.88;43.19
70555;BME280;58104;52.744;15.242;2023-02-13T07:34:56;102920.54;;;17.88;43.32
70555;BME280;58104;52.744;15.242;2023-02-13T07:37:21;102922.50;;;17.95;43.40
70555;BME280;58104;52.744;15.242;2023-02-13T07:39:47;102922.46;;;17.90;43.58
70555;BME280;58104;52.744;15.242;2023-02-13T07:42:13;102924.11;;;17.90;43.64
70555;BME280;58104;52.744;15.242;2023-02-13T07:44:38;102928.16;;;17.91;43.71
70555;BME280;58104;52.744;15.242;2023-02-13T07:47:03;102929.76;;;18.09;43.87
70555;BME280;58104;52.744;15.242;2023-02-13T07:49:29;102934.68;;;18.25;44.31
70555;BME280;58104;52.744;15.242;2023-02-13T07:51:55;102935.18;;;18.35;44.76
70555;BME280;58104;52.744;15.242;2023-02-13T07:54:19;102937.03;;;18.35;45.00
70555;BME280;58104;52.744;15.242;2023-02-13T07:56:45;102942.47;;;18.24;45.35
70555;BME280;58104;52.744;15.242;2023-02-13T07:59:10;102943.06;;;18.34;45.46
70555;BME280;58104;52.744;15.242;2023-02-13T08:01:36;102936.33;;;18.34;45.02
70555;BME280;58104;52.744;15.242;2023-02-13T08:04:01;102933.18;;;18.44;45.33
70555;BME280;58104;52.744;15.242;2023-02-13T08:06:27;102928.86;;;18.85;45.20
70555;BME280;58104;52.744;15.242;2023-02-13T08:08:52;102930.92;;;18.92;45.21
70555;BME280;58104;52.744;15.242;2023-02-13T08:11:25;102926.61;;;18.97;44.86
70555;BME280;58104;52.744;15.242;2023-02-13T08:13:43;102929.69;;;19.01;44.96
70555;BME280;58104;52.744;15.242;2023-02-13T08:16:08;102928.35;;;18.96;45.11
70555;BME280;58104;52.744;15.242;2023-02-13T08:18:33;102928.48;;;19.04;44.97
70555;BME280;58104;52.744;15.242;2023-02-13T08:21:00;102930.39;;;19.19;45.09
70555;BME280;58104;52.744;15.242;2023-02-13T08:23:24;102931.86;;;19.05;45.20
70555;BME280;58104;52.744;15.242;2023-02-13T08:25:50;102936.49;;;19.20;45.04
70555;BME280;58104;52.744;15.242;2023-02-13T08:28:16;102940.31;;;19.14;45.17
70555;BME280;58104;52.744;15.242;2023-02-13T08:30:41;102942.21;;;19.07;45.39
70555;BME280;58104;52.744;15.242;2023-02-13T08:33:06;102945.06;;;19.10;45.35
70555;BME280;58104;52.744;15.242;2023-02-13T08:35:31;102945.71;;;19.21;45.26
70555;BME280;58104;52.744;15.242;2023-02-13T08:38:01;102942.03;;;19.23;45.33
70555;BME280;58104;52.744;15.242;2023-02-13T08:40:22;102945.68;;;19.17;45.48
70555;BME280;58104;52.744;15.242;2023-02-13T08:42:48;102948.56;;;19.21;45.09
70555;BME280;58104;52.744;15.242;2023-02-13T08:45:13;102948.28;;;19.16;45.03
70555;BME280;58104;52.744;15.242;2023-02-13T08:47:38;102949.95;;;19.00;45.50
70555;BME280;58104;52.744;15.242;2023-02-13T08:50:05;102949.97;;;19.02;45.78
70555;BME280;58104;52.744;15.242;2023-02-13T08:52:29;102949.72;;;19.10;45.63
70555;BME280;58104;52.744;15.242;2023-02-13T08:54:55;102950.44;;;18.96;45.44
70555;BME280;58104;52.744;15.242;2023-02-13T08:57:20;102950.01;;;18.95;45.25
70555;BME280;58104;52.744;15.242;2023-02-13T08:59:45;102951.08;;;19.07;45.19
70555;BME280;58104;52.744;15.242;2023-02-13T09:02:11;102949.80;;;19.03;45.55
70555;BME280;58104;52.744;15.242;2023-02-13T09:04:36;102952.02;;;19.04;45.71
70555;BME280;58104;52.744;15.242;2023-02-13T09:07:02;102950.52;;;19.17;45.48
70555;BME280;58104;52.744;15.242;2023-02-13T09:09:27;102948.92;;;19.21;45.47
70555;BME280;58104;52.744;15.242;2023-02-13T09:11:52;102951.25;;;19.37;45.16
70555;BME280;58104;52.744;15.242;2023-02-13T09:14:18;102949.66;;;19.35;44.70
70555;BME280;58104;52.744;15.242;2023-02-13T09:16:43;102955.10;;;19.30;45.13
70555;BME280;58104;52.744;15.242;2023-02-13T09:19:09;102955.32;;;19.39;45.01
70555;BME280;58104;52.744;15.242;2023-02-13T09:21:34;102954.63;;;19.35;45.30
70555;BME280;58104;52.744;15.242;2023-02-13T09:24:00;102953.79;;;19.36;45.16
70555;BME280;58104;52.744;15.242;2023-02-13T09:26:25;102948.08;;;19.48;45.14
70555;BME280;58104;52.744;15.242;2023-02-13T09:28:50;102947.00;;;19.41;45.10
70555;BME280;58104;52.744;15.242;2023-02-13T09:31:18;102943.80;;;19.52;45.10
70555;BME280;58104;52.744;15.242;2023-02-13T09:33:42;102945.76;;;19.55;45.09
70555;BME280;58104;52.744;15.242;2023-02-13T09:36:09;102947.22;;;19.45;45.20
70555;BME280;58104;52.744;15.242;2023-02-13T09:38:32;102946.18;;;19.48;45.19
70555;BME280;58104;52.744;15.242;2023-02-13T09:41:01;102942.54;;;19.45;44.94
70555;BME280;58104;52.744;15.242;2023-02-13T09:43:28;102940.66;;;19.50;45.04
70555;BME280;58104;52.744;15.242;2023-02-13T09:45:49;102950.03;;;19.45;45.30
70555;BME280;58104;52.744;15.242;2023-02-13T09:48:18;102944.56;;;19.35;45.24
70555;BME280;58104;52.744;15.242;2023-02-13T09:50:39;102944.48;;;19.35;44.93
70555;BME280;58104;52.744;15.242;2023-02-13T09:53:05;102935.69;;;19.37;44.76
70555;BME280;58104;52.744;15.242;2023-02-13T09:55:38;102930.15;;;19.34;44.69
70555;BME280;58104;52.744;15.242;2023-02-13T09:57:58;102926.62;;;19.32;44.43
70555;BME280;58104;52.744;15.242;2023-02-13T10:00:25;102930.88;;;19.37;44.50
70555;BME280;58104;52.744;15.242;2023-02-13T10:02:54;102924.88;;;19.44;44.78
70555;BME280;58104;52.744;15.242;2023-02-13T10:05:22;102931.83;;;19.46;44.79
70555;BME280;58104;52.744;15.242;2023-02-13T10:07:44;102932.52;;;19.54;44.79
70555;BME280;58104;52.744;15.242;2023-02-13T10:10:07;102934.66;;;19.58;44.78
70555;BME280;58104;52.744;15.242;2023-02-13T10:12:39;102932.02;;;19.52;45.02
70555;BME280;58104;52.744;15.242;2023-02-13T10:15:02;102935.03;;;19.60;44.99
70555;BME280;58104;52.744;15.242;2023-02-13T10:17:22;102939.51;;;19.62;45.02
70555;BME280;58104;52.744;15.242;2023-02-13T10:19:47;102935.14;;;19.64;44.94
70555;BME280;58104;52.744;15.242;2023-02-13T10:22:14;102937.05;;;19.66;44.96
70555;BME280;58104;52.744;15.242;2023-02-13T10:24:38;102936.20;;;19.66;44.96
70555;BME280;58104;52.744;15.242;2023-02-13T10:27:03;102938.47;;;19.62;44.76
70555;BME280;58104;52.744;15.242;2023-02-13T10:29:35;102933.03;;;19.42;44.68
70555;BME280;58104;52.744;15.242;2023-02-13T10:31:52;102928.80;;;19.38;44.51
70555;BME280;58104;52.744;15.242;2023-02-13T10:34:17;102929.45;;;19.25;44.32
70555;BME280;58104;52.744;15.242;2023-02-13T10:36:44;102926.66;;;19.42;44.12
70555;BME280;58104;52.744;15.242;2023-02-13T10:39:20;102929.26;;;19.36;43.79
70555;BME280;58104;52.744;15.242;2023-02-13T10:41:41;102927.32;;;19.34;43.77
70555;BME280;58104;52.744;15.242;2023-02-13T10:44:11;102923.93;;;19.37;43.62
70555;BME280;58104;52.744;15.242;2023-02-13T10:46:28;102926.16;;;19.38;43.46
70555;BME280;58104;52.744;15.242;2023-02-13T10:49:02;102921.21;;;19.29;43.75
70555;BME280;58104;52.744;15.242;2023-02-13T10:51:20;102917.92;;;19.28;44.08
70555;BME280;58104;52.744;15.242;2023-02-13T10:53:50;102916.43;;;19.36;44.24
70555;BME280;58104;52.744;15.242;2023-02-13T10:56:14;102917.91;;;19.34;43.69
70555;BME280;58104;52.744;15.242;2023-02-13T10:58:40;102913.50;;;19.27;43.93
70555;BME280;58104;52.744;15.242;2023-02-13T11:01:01;102911.96;;;19.49;43.97
70555;BME280;58104;52.744;15.242;2023-02-13T11:03:23;102905.54;;;19.58;44.11
70555;BME280;58104;52.744;15.242;2023-02-13T11:05:47;102904.79;;;19.53;43.94
70555;BME280;58104;52.744;15.242;2023-02-13T11:08:17;102908.08;;;19.46;43.77
70555;BME280;58104;52.744;15.242;2023-02-13T11:10:39;102903.29;;;19.32;43.81
70555;BME280;58104;52.744;15.242;2023-02-13T11:15:30;102912.56;;;19.46;43.98
70555;BME280;58104;52.744;15.242;2023-02-13T11:17:56;102910.50;;;19.50;44.31
70555;BME280;58104;52.744;15.242;2023-02-13T11:20:29;102914.83;;;19.61;44.31
70555;BME280;58104;52.744;15.242;2023-02-13T11:22:45;102920.89;;;19.54;44.36
70555;BME280;58104;52.744;15.242;2023-02-13T11:25:18;102926.28;;;19.77;44.28
70555;BME280;58104;52.744;15.242;2023-02-13T11:27:37;102922.35;;;19.56;44.40
70555;BME280;58104;52.744;15.242;2023-02-13T11:30:05;102920.49;;;19.74;44.46
70555;BME280;58104;52.744;15.242;2023-02-13T11:32:27;102920.19;;;19.80;44.49
70555;BME280;58104;52.744;15.242;2023-02-13T11:34:52;102922.31;;;19.87;44.42
70555;BME280;58104;52.744;15.242;2023-02-13T11:37:21;102920.83;;;19.90;44.38
70555;BME280;58104;52.744;15.242;2023-02-13T11:39:44;102924.94;;;19.86;44.36
70555;BME280;58104;52.744;15.242;2023-02-13T11:42:12;102924.61;;;19.93;44.53
70555;BME280;58104;52.744;15.242;2023-02-13T11:44:33;102920.72;;;19.83;44.77
70555;BME280;58104;52.744;15.242;2023-02-13T11:47:00;102915.87;;;19.64;44.85
70555;BME280;58104;52.744;15.242;2023-02-13T11:49:26;102912.55;;;19.56;44.96
70555;BME280;58104;52.744;15.242;2023-02-13T11:51:51;102907.17;;;19.64;45.06
70555;BME280;58104;52.744;15.242;2023-02-13T11:54:22;102908.55;;;19.65;45.78
70555;BME280;58104;52.744;15.242;2023-02-13T11:56:48;102915.37;;;19.58;45.89
70555;BME280;58104;52.744;15.242;2023-02-13T11:59:12;102915.80;;;19.67;45.75
70555;BME280;58104;52.744;15.242;2023-02-13T12:01:31;102915.55;;;19.64;45.87
70555;BME280;58104;52.744;15.242;2023-02-13T12:04:04;102912.03;;;19.65;45.84
70555;BME280;58104;52.744;15.242;2023-02-13T12:06:22;102908.32;;;19.79;45.72
70555;BME280;58104;52.744;15.242;2023-02-13T12:08:48;102915.28;;;19.80;45.84
70555;BME280;58104;52.744;15.242;2023-02-13T12:11:21;102912.71;;;19.79;45.84
70555;BME280;58104;52.744;15.242;2023-02-13T12:13:38;102908.88;;;19.90;45.66
70555;BME280;58104;52.744;15.242;2023-02-13T12:16:09;102909.92;;;19.96;45.59
70555;BME280;58104;52.744;15.242;2023-02-13T12:18:33;102909.61;;;19.82;45.89
70555;BME280;58104;52.744;15.242;2023-02-13T12:21:01;102901.63;;;20.00;45.69
70555;BME280;58104;52.744;15.242;2023-02-13T12:23:28;102898.14;;;19.97;45.73
70555;BME280;58104;52.744;15.242;2023-02-13T12:25:54;102894.12;;;19.99;45.67
70555;BME280;58104;52.744;15.242;2023-02-13T12:28:13;102898.28;;;20.02;45.87
70555;BME280;58104;52.744;15.242;2023-02-13T12:33:11;102899.56;;;19.93;45.09
70555;BME280;58104;52.744;15.242;2023-02-13T12:35:37;102902.18;;;19.96;45.22
70555;BME280;58104;52.744;15.242;2023-02-13T12:38:00;102897.31;;;19.91;45.23
70555;BME280;58104;52.744;15.242;2023-02-13T12:40:30;102893.63;;;19.98;45.34